Time;durP1;ratioP1;P1;durP2;ratioP2;P2;SDS_P1;SDS_P2;PMS_P1;PMS_P2;Temp;Humidity;BMP_temperature;BMP_pressure;BME280_temperature;BME280_humidity;BME280_pressure;Samples;Min_cycle;Max_cycle;Signal;HPM_P1;HPM_P2
2021/12/03 00:00:28;;;;;;;21.52;11.75;;;;;;;6.76;100.00;98317.34;6303669;28;20040;-73
2021/12/03 00:03:29;;;;;;;17.05;10.73;;;;;;;6.71;100.00;98316.81;6303832;28;20075;-74
2021/12/03 00:06:34;;;;;;;20.98;11.13;;;;;;;6.84;100.00;98317.59;6321433;28;20048;-75
2021/12/03 00:09:36;;;;;;;17.98;11.40;;;;;;;6.87;100.00;98317.38;6321600;28;20040;-74
2021/12/03 00:12:38;;;;;;;17.98;10.35;;;;;;;6.90;100.00;98306.78;6320276;28;20071;-74
2021/12/03 00:15:38;;;;;;;21.83;11.88;;;;;;;6.96;100.00;98318.44;6320320;28;20040;-75
2021/12/03 00:18:40;;;;;;;20.92;11.18;;;;;;;6.94;100.00;98303.03;6321239;28;20071;-75
2021/12/03 00:21:40;;;;;;;20.95;10.52;;;;;;;6.92;100.00;98304.06;6320243;28;20036;-74
2021/12/03 00:24:41;;;;;;;16.65;9.48;;;;;;;6.92;100.00;98312.69;6320091;28;20044;-75
2021/12/03 00:27:43;;;;;;;16.92;10.10;;;;;;;6.92;100.00;98314.44;6319832;28;20054;-75
2021/12/03 00:30:44;;;;;;;15.20;9.77;;;;;;;6.69;100.00;98318.72;6321198;28;20043;-75
2021/12/03 00:33:45;;;;;;;13.95;8.82;;;;;;;6.61;100.00;98334.81;6321073;28;20315;-73
2021/12/03 00:36:45;;;;;;;12.07;7.90;;;;;;;6.65;100.00;98311.16;6321065;28;20040;-73
2021/12/03 00:39:46;;;;;;;9.48;7.18;;;;;;;6.74;100.00;98332.16;6321041;28;20115;-73
2021/12/03 00:42:47;;;;;;;11.25;6.70;;;;;;;6.62;100.00;98332.09;6319941;28;20375;-75
2021/12/03 00:45:48;;;;;;;9.00;6.53;;;;;;;6.68;100.00;98342.97;6319819;28;20158;-74
2021/12/03 00:48:52;;;;;;;7.97;5.90;;;;;;;6.45;100.00;98335.09;6303035;28;20051;-75
2021/12/03 00:51:53;;;;;;;9.35;6.05;;;;;;;6.27;100.00;98345.00;6319709;28;20507;-73
2021/12/03 00:54:54;;;;;;;8.18;6.45;;;;;;;6.34;100.00;98338.47;6319761;28;20121;-75
2021/12/03 00:57:54;;;;;;;7.32;5.45;;;;;;;6.26;100.00;98345.94;6320732;28;20051;-73
2021/12/03 01:00:55;;;;;;;6.88;5.30;;;;;;;6.27;100.00;98344.16;6319525;28;20051;-73
2021/12/03 01:03:56;;;;;;;6.53;4.72;;;;;;;6.26;100.00;98343.34;6320798;28;20040;-73
2021/12/03 01:06:57;;;;;;;5.20;4.65;;;;;;;6.23;100.00;98354.72;6320694;28;20173;-73
2021/12/03 01:09:58;;;;;;;6.65;5.13;;;;;;;5.99;100.00;98346.09;6325247;28;20118;-73
2021/12/03 01:12:59;;;;;;;4.93;4.43;;;;;;;5.80;100.00;98349.91;6307603;28;20098;-73
2021/12/03 01:15:59;;;;;;;4.55;4.07;;;;;;;5.80;100.00;98357.66;6325614;28;20053;-73
2021/12/03 01:19:02;;;;;;;5.10;4.00;;;;;;;6.07;100.00;98353.31;6324172;28;20040;-73
2021/12/03 01:22:04;;;;;;;4.70;3.75;;;;;;;5.95;100.00;98332.53;6325446;28;20116;-74
2021/12/03 01:25:07;;;;;;;5.30;3.95;;;;;;;6.08;100.00;98334.28;6325772;28;20476;-75
2021/12/03 01:28:08;;;;;;;3.80;3.38;;;;;;;6.13;100.00;98343.34;6323979;28;20056;-73
2021/12/03 01:31:09;;;;;;;4.00;3.22;;;;;;;6.21;100.00;98358.38;6325263;28;20036;-73
2021/12/03 01:34:10;;;;;;;4.93;3.47;;;;;;;6.23;100.00;98354.72;6323756;28;20419;-74
2021/12/03 01:37:11;;;;;;;3.72;2.92;;;;;;;6.18;100.00;98356.84;6323895;28;20044;-75
2021/12/03 01:40:19;;;;;;;3.83;2.88;;;;;;;6.02;100.00;98364.81;6324978;28;20044;-75
2021/12/03 01:43:23;;;;;;;2.80;2.40;;;;;;;6.10;100.00;98356.53;6325040;28;20036;-73
2021/12/03 01:46:24;;;;;;;2.65;2.30;;;;;;;6.04;100.00;98349.19;6323652;28;20123;-75
2021/12/03 01:49:25;;;;;;;3.03;2.60;;;;;;;6.03;100.00;98353.56;6306927;28;20036;-74
2021/12/03 01:52:26;;;;;;;2.80;2.55;;;;;;;5.99;100.00;98361.63;6323545;28;20047;-75
2021/12/03 01:55:27;;;;;;;2.65;2.35;;;;;;;6.01;100.00;98357.16;6323565;28;20090;-74
2021/12/03 01:58:28;;;;;;;2.60;2.40;;;;;;;5.76;100.00;98355.41;6324564;28;20048;-75
2021/12/03 02:01:29;;;;;;;1.73;1.63;;;;;;;5.75;100.00;98359.75;6324497;28;20334;-74
2021/12/03 02:04:30;;;;;;;1.92;1.35;;;;;;;5.52;100.00;98368.22;6324528;28;20496;-75
2021/12/03 02:07:31;;;;;;;0.85;0.80;;;;;;;5.30;100.00;98381.78;6322983;28;20055;-74
2021/12/03 02:10:32;;;;;;;0.80;0.80;;;;;;;5.14;100.00;98387.13;6324425;28;20480;-74
2021/12/03 02:13:34;;;;;;;1.40;1.15;;;;;;;5.20;100.00;98384.13;6324197;28;20046;-74
2021/12/03 02:16:37;;;;;;;1.77;1.02;;;;;;;4.88;100.00;98387.06;6324197;28;20036;-73
2021/12/03 02:19:38;;;;;;;;;;;;;;;4.93;100.00;98394.53;6323464;28;20051;-74
2021/12/03 02:22:40;;;;;;;1.55;1.35;;;;;;;4.98;100.00;98398.47;6322951;28;19920;-74
2021/12/03 02:25:42;;;;;;;1.47;1.37;;;;;;;4.95;100.00;98408.19;6322951;28;20039;-74
2021/12/03 02:28:46;;;;;;;1.40;1.30;;;;;;;4.91;100.00;98410.13;6324223;28;20519;-73
2021/12/03 02:31:48;;;;;;;1.98;1.63;;;;;;;4.89;100.00;98422.31;6323694;28;20063;-73
2021/12/03 02:34:49;;;;;;;1.58;1.40;;;;;;;4.75;100.00;98427.53;6305876;28;20476;-73
2021/12/03 02:37:51;;;;;;;1.20;1.10;;;;;;;4.87;100.00;98421.56;6322450;28;20484;-74
2021/12/03 02:40:53;;;;;;;1.40;1.25;;;;;;;4.95;100.00;98423.69;6323606;28;20498;-74
2021/12/03 02:43:54;;;;;;;1.42;1.33;;;;;;;4.97;100.00;98420.06;6323579;28;20450;-74
2021/12/03 02:46:55;;;;;;;1.55;1.27;;;;;;;5.02;100.00;98424.94;6288730;28;20075;-74
2021/12/03 02:49:55;;;;;;;2.65;1.20;;;;;;;4.78;100.00;98430.75;6305385;28;20395;-72
2021/12/03 02:52:57;;;;;;;0.95;0.95;;;;;;;4.84;100.00;98439.88;6323233;28;20047;-73
2021/12/03 02:55:57;;;;;;;1.08;0.85;;;;;;;4.70;100.00;98434.75;6305303;28;20079;-73
2021/12/03 02:58:58;;;;;;;0.80;0.80;;;;;;;4.71;100.00;98441.56;6304900;28;20051;-72
2021/12/03 03:02:02;;;;;;;1.05;0.90;;;;;;;4.52;100.00;98442.69;6321975;28;20040;-71
2021/12/03 03:05:03;;;;;;;1.30;0.95;;;;;;;4.49;100.00;98452.38;6323075;28;20415;-72
2021/12/03 03:08:04;;;;;;;1.27;1.10;;;;;;;4.36;100.00;98449.72;6321733;28;20051;-72
2021/12/03 03:11:06;;;;;;;1.00;0.90;;;;;;;4.26;100.00;98461.53;6322839;28;20276;-72
2021/12/03 03:14:07;;;;;;;1.70;0.90;;;;;;;4.41;100.00;98473.53;6305013;28;20127;-72
2021/12/03 03:17:08;;;;;;;2.22;1.00;;;;;;;4.36;100.00;98476.38;6321423;28;20101;-73
2021/12/03 03:20:10;;;;;;;1.38;1.13;;;;;;;4.21;100.00;98488.47;6321363;28;20040;-76
2021/12/03 03:23:14;;;;;;;0.82;0.82;;;;;;;4.37;100.00;98496.13;6321375;28;20036;-74
2021/12/03 03:26:15;;;;;;;;;;;;;;;4.22;100.00;98505.63;6322892;28;20036;-73
2021/12/03 03:29:16;;;;;;;1.90;1.40;;;;;;;4.18;100.00;98511.03;6322304;28;19927;-73
2021/12/03 03:32:18;;;;;;;1.47;1.30;;;;;;;4.15;100.00;98517.22;6321071;28;20036;-73
2021/12/03 03:35:19;;;;;;;1.60;1.50;;;;;;;4.11;100.00;98522.66;6322701;28;20044;-71
2021/12/03 03:38:20;;;;;;;2.17;1.40;;;;;;;4.19;100.00;98523.03;6320939;28;20050;-72
2021/12/03 03:41:22;;;;;;;4.97;1.67;;;;;;;3.92;100.00;98523.75;6322053;28;20039;-72
2021/12/03 03:44:23;;;;;;;3.13;1.80;;;;;;;3.65;100.00;98540.81;6322095;28;20135;-73
2021/12/03 03:47:24;;;;;;;2.30;1.70;;;;;;;3.73;100.00;98548.97;6322068;28;20047;-72
2021/12/03 03:50:26;;;;;;;3.88;2.40;;;;;;;3.59;100.00;98554.88;6304076;28;20613;-72
2021/12/03 03:53:27;;;;;;;4.97;2.80;;;;;;;3.66;100.00;98556.19;6321952;28;20119;-72
2021/12/03 03:56:29;;;;;;;3.45;2.58;;;;;;;3.56;100.00;98552.47;6321915;28;20050;-73
2021/12/03 03:59:30;;;;;;;7.00;3.43;;;;;;;3.26;100.00;98555.03;6321703;28;20097;-72
2021/12/03 04:02:30;;;;;;;11.60;3.40;;;;;;;3.32;100.00;98563.25;6322087;28;20119;-74
2021/12/03 04:05:31;;;;;;;5.38;3.05;;;;;;;3.40;100.00;98567.97;6320597;28;20504;-72
2021/12/03 04:08:32;;;;;;;5.40;2.95;;;;;;;3.31;100.00;98589.91;6321670;28;20044;-73
2021/12/03 04:11:33;;;;;;;7.57;3.42;;;;;;;3.39;100.00;98580.03;6321564;28;20492;-74
2021/12/03 04:14:34;;;;;;;4.72;3.03;;;;;;;3.19;100.00;98577.69;6320373;28;20071;-71
2021/12/03 04:17:34;;;;;;;3.80;2.35;;;;;;;3.27;100.00;98595.34;6321450;28;20046;-74
2021/12/03 04:20:35;;;;;;;3.80;2.60;;;;;;;3.29;100.00;98599.50;6303278;28;20381;-73
2021/12/03 04:23:36;;;;;;;3.17;2.20;;;;;;;3.05;100.00;98617.13;6321362;28;20040;-73
2021/12/03 04:26:37;;;;;;;2.75;2.17;;;;;;;3.15;100.00;98609.72;6321245;28;20055;-73
2021/12/03 04:29:38;;;;;;;5.20;2.75;;;;;;;2.92;100.00;98621.25;6320050;28;20419;-73
2021/12/03 04:32:39;;;;;;;4.43;2.30;;;;;;;2.87;100.00;98644.69;6320132;28;20515;-73
2021/12/03 04:35:40;;;;;;;3.53;1.77;;;;;;;2.72;100.00;98633.44;6303221;28;20044;-73
2021/12/03 04:38:41;;;;;;;2.28;1.23;;;;;;;2.63;100.00;98650.16;6321111;28;20142;-72
2021/12/03 04:41:43;;;;;;;3.42;1.60;;;;;;;2.51;100.00;98653.38;6320924;28;20054;-73
2021/12/03 04:44:44;;;;;;;2.45;1.45;;;;;;;2.62;100.00;98666.53;6320519;28;20448;-73
2021/12/03 04:47:47;;;;;;;1.88;1.35;;;;;;;2.58;100.00;98664.19;6319784;28;20098;-73
2021/12/03 04:50:49;;;;;;;3.40;1.67;;;;;;;2.32;100.00;98681.75;6320928;28;20385;-73
2021/12/03 04:53:50;;;;;;;3.25;1.17;;;;;;;2.31;100.00;98684.44;6319656;28;20066;-73
2021/12/03 04:56:50;;;;;;;3.15;1.33;;;;;;;2.34;100.00;98697.97;6319527;28;20051;-73
2021/12/03 04:59:51;;;;;;;2.17;1.50;;;;;;;2.12;100.00;98703.34;6286245;28;20036;-72
2021/12/03 05:02:53;;;;;;;4.85;2.00;;;;;;;2.09;100.00;98706.03;6319689;28;20044;-71
2021/12/03 05:05:56;;;;;;;3.63;1.98;;;;;;;2.18;100.00;98710.78;6303081;28;20068;-73
2021/12/03 05:08:57;;;;;;;3.25;2.03;;;;;;;2.18;100.00;98715.06;6320704;28;20412;-72
2021/12/03 05:11:58;;;;;;;3.95;2.45;;;;;;;2.17;100.00;98715.97;6302628;28;20036;-71
2021/12/03 05:15:00;;;;;;;2.40;1.33;;;;;;;1.87;100.00;98731.13;6302610;28;20036;-71
2021/12/03 05:18:01;;;;;;;4.38;1.80;;;;;;;1.81;100.00;98738.22;6319373;28;20091;-71
2021/12/03 05:21:04;;;;;;;5.25;1.95;;;;;;;1.84;100.00;98742.38;6320515;28;20105;-71
2021/12/03 05:24:05;;;;;;;3.13;2.05;;;;;;;1.91;100.00;98760.94;6319452;28;20044;-73
2021/12/03 05:27:05;;;;;;;4.72;1.85;;;;;;;1.86;100.00;98760.34;6302312;28;20504;-72
2021/12/03 05:30:08;;;;;;;3.08;2.00;;;;;;;1.89;100.00;98773.84;6302685;28;20047;-72
2021/12/03 05:33:09;;;;;;;2.63;1.67;;;;;;;1.89;100.00;98784.16;6320418;28;20039;-73
2021/12/03 05:36:10;;;;;;;2.85;1.80;;;;;;;1.80;100.00;98798.28;6320495;28;20053;-72
2021/12/03 05:39:11;;;;;;;4.85;1.98;;;;;;;1.76;100.00;98794.16;6320287;28;20504;-73
2021/12/03 05:42:12;;;;;;;3.47;1.50;;;;;;;1.68;100.00;98806.53;6319041;28;20463;-72
2021/12/03 05:45:25;;;;;;;3.13;1.77;;;;;;;1.59;100.00;98822.38;6320342;28;20075;-72
2021/12/03 05:48:26;;;;;;;2.92;1.35;;;;;;;1.60;100.00;98818.91;6319036;28;20416;-73
2021/12/03 05:51:28;;;;;;;2.13;1.40;;;;;;;1.53;100.00;98820.09;6319481;28;20047;-72
2021/12/03 05:54:29;;;;;;;3.40;1.85;;;;;;;1.55;100.00;98842.25;6320625;28;20044;-73
2021/12/03 05:57:30;;;;;;;5.18;1.95;;;;;;;1.41;100.00;98847.97;6323504;28;20051;-73
2021/12/03 06:00:42;;;;;;;4.78;2.13;;;;;;;1.33;100.00;98860.31;6324564;28;20105;-71
2021/12/03 06:03:43;;;;;;;9.43;2.85;;;;;;;1.53;100.00;98872.31;6324882;28;20040;-71
2021/12/03 06:06:44;;;;;;;4.00;2.08;;;;;;;1.58;100.00;98892.69;6323324;28;20043;-73
2021/12/03 06:09:45;;;;;;;5.60;2.67;;;;;;;1.51;100.00;98894.69;6323252;28;20377;-73
2021/12/03 06:12:46;;;;;;;6.95;2.53;;;;;;;1.42;100.00;98892.50;6323943;28;20036;-73
2021/12/03 06:15:47;;;;;;;7.63;3.03;;;;;;;1.51;100.00;98904.97;6323094;28;20064;-72
2021/12/03 06:18:48;;;;;;;5.70;2.95;;;;;;;1.53;100.00;98918.59;6324222;28;20044;-73
2021/12/03 06:21:50;;;;;;;4.40;2.70;;;;;;;1.48;100.00;98930.81;6324043;28;20155;-74
2021/12/03 06:24:50;;;;;;;7.47;3.08;;;;;;;1.54;100.00;98933.13;6322890;28;20036;-72
2021/12/03 06:27:54;;;;;;;5.47;2.92;;;;;;;1.52;100.00;98927.19;6323682;28;20106;-72
2021/12/03 06:30:55;;;;;;;7.40;3.13;;;;;;;1.58;100.00;98929.50;6322657;28;20048;-71
2021/12/03 06:33:56;;;;;;;13.50;5.80;;;;;;;1.67;100.00;98935.16;6323681;28;20070;-74
2021/12/03 06:36:57;;;;;;;5.80;2.92;;;;;;;1.73;100.00;98933.19;6323733;28;20507;-74
2021/12/03 06:39:57;;;;;;;6.15;3.22;;;;;;;1.61;100.00;98942.25;6305705;28;20084;-73
2021/12/03 06:42:58;;;;;;;6.57;2.55;;;;;;;1.62;100.00;98950.81;6322295;28;20036;-71
2021/12/03 06:46:03;;;;;;;9.50;4.50;;;;;;;1.68;100.00;98960.84;6319889;28;20476;-71
2021/12/03 06:49:04;;;;;;;9.50;3.88;;;;;;;1.65;100.00;98967.81;6319316;28;20048;-73
2021/12/03 06:52:08;;;;;;;8.57;3.80;;;;;;;1.70;100.00;98968.50;6323090;28;20036;-71
2021/12/03 06:55:13;;;;;;;10.70;4.38;;;;;;;1.58;100.00;98974.97;6311107;28;20098;-73
2021/12/03 06:58:16;;;;;;;11.45;3.90;;;;;;;1.72;100.00;98972.66;6298849;28;20040;-73
2021/12/03 07:01:17;;;;;;;7.18;3.60;;;;;;;1.73;100.00;98999.22;6297946;28;20041;-73
2021/12/03 07:04:19;;;;;;;8.40;4.25;;;;;;;1.79;100.00;99004.09;6301893;28;20047;-74
2021/12/03 07:07:20;;;;;;;10.63;3.25;;;;;;;1.76;98.58;99005.06;6316742;28;20054;-74
2021/12/03 07:10:21;;;;;;;6.97;2.70;;;;;;;1.72;100.00;99025.84;6299533;28;20439;-73
2021/12/03 07:13:22;;;;;;;7.55;2.13;;;;;;;1.79;100.00;99035.81;6311341;28;20484;-74
2021/12/03 07:16:23;;;;;;;5.32;2.30;;;;;;;1.62;100.00;99025.38;6322983;28;20047;-72
2021/12/03 07:19:24;;;;;;;8.38;2.90;;;;;;;1.85;100.00;99032.13;6310370;28;20040;-72
2021/12/03 07:22:27;;;;;;;9.18;3.20;;;;;;;1.72;99.27;99034.38;6312166;28;20404;-71
2021/12/03 07:25:27;;;;;;;7.18;2.63;;;;;;;1.96;98.79;99040.25;6296240;28;20102;-72
2021/12/03 07:28:30;;;;;;;10.40;2.65;;;;;;;1.98;100.00;99028.16;6297253;28;20272;-73
2021/12/03 07:31:30;;;;;;;;;;;;;;;1.96;98.12;99029.97;6297776;28;20037;-72
2021/12/03 07:34:32;;;;;;;10.35;3.30;;;;;;;2.07;94.64;99033.81;6319064;28;19920;-72
2021/12/03 07:37:33;;;;;;;5.13;2.72;;;;;;;2.08;96.08;99050.91;6322334;28;20048;-72
2021/12/03 07:40:33;;;;;;;5.35;2.70;;;;;;;2.11;94.54;99056.78;6321024;28;20047;-72
2021/12/03 07:43:36;;;;;;;9.10;3.30;;;;;;;2.06;89.78;99055.28;6321003;28;20475;-72
2021/12/03 07:46:36;;;;;;;12.07;3.17;;;;;;;2.20;93.96;99078.72;6320943;28;20044;-73
2021/12/03 07:49:39;;;;;;;6.53;2.22;;;;;;;2.16;91.73;99090.91;6320905;28;20450;-74
2021/12/03 07:52:40;;;;;;;6.43;3.10;;;;;;;2.19;91.59;99119.06;6304068;28;20040;-74
2021/12/03 07:55:42;;;;;;;8.27;2.28;;;;;;;2.16;91.37;99146.66;6321986;28;20518;-74
2021/12/03 07:58:42;;;;;;;10.85;4.05;;;;;;;2.27;92.79;99151.38;6322080;28;20040;-74
2021/12/03 08:01:45;;;;;;;3.75;1.85;;;;;;;2.21;91.42;99173.88;6320661;28;20044;-74
2021/12/03 08:04:46;;;;;;;;;;;;;;;2.12;90.36;99178.56;6322101;28;20462;-72
2021/12/03 08:07:48;;;;;;;5.13;2.00;;;;;;;2.12;89.40;99169.13;6320483;28;19932;-73
2021/12/03 08:10:50;;;;;;;5.40;2.65;;;;;;;2.27;91.46;99180.53;6320548;28;20093;-72
2021/12/03 08:13:51;;;;;;;6.10;1.90;;;;;;;2.19;91.04;99187.72;6314277;28;20040;-72
2021/12/03 08:16:51;;;;;;;6.80;2.55;;;;;;;2.22;90.72;99180.72;6304325;28;20400;-72
2021/12/03 08:19:52;;;;;;;4.38;2.10;;;;;;;2.50;91.85;99178.75;6278665;28;20044;-72
2021/12/03 08:22:53;;;;;;;5.63;1.98;;;;;;;2.31;88.29;99194.13;6311113;28;20036;-72
2021/12/03 08:25:54;;;;;;;7.78;3.10;;;;;;;2.61;89.42;99199.72;6322106;28;20202;-72
2021/12/03 08:28:54;;;;;;;5.68;2.20;;;;;;;2.47;87.71;99207.19;6320448;28;20069;-72
2021/12/03 08:31:55;;;;;;;5.35;2.25;;;;;;;2.66;86.83;99233.00;6320759;28;20103;-72
2021/12/03 08:34:56;;;;;;;6.40;2.58;;;;;;;2.66;89.66;99222.72;6322064;28;20464;-72
2021/12/03 08:37:58;;;;;;;5.43;2.55;;;;;;;2.71;87.31;99220.78;6320713;28;20048;-72
2021/12/03 08:40:58;;;;;;;5.33;2.40;;;;;;;2.57;84.86;99236.81;6321701;28;20500;-72
2021/12/03 08:44:02;;;;;;;7.38;2.97;;;;;;;2.73;85.36;99230.13;6321781;28;20058;-71
2021/12/03 08:47:04;;;;;;;5.82;2.63;;;;;;;2.56;85.07;99224.84;6306358;28;20086;-72
2021/12/03 08:50:12;;;;;;;11.07;3.17;;;;;;;2.56;84.73;99228.25;6299226;28;20040;-72
2021/12/03 08:56:14;;;;;;;8.35;2.88;;;;;;;2.67;85.00;99252.72;6295832;28;20056;-72
2021/12/03 08:59:15;;;;;;;4.18;1.95;;;;;;;2.51;82.23;99266.25;6279103;28;20041;-71
2021/12/03 09:02:16;;;;;;;11.68;2.47;;;;;;;2.74;82.13;99267.00;6296827;28;20037;-72
2021/12/03 09:05:17;;;;;;;4.25;1.95;;;;;;;2.68;81.26;99260.41;6314385;28;20396;-72
2021/12/03 09:08:18;;;;;;;7.82;2.08;;;;;;;2.62;82.98;99278.69;6320067;28;20044;-73
2021/12/03 09:11:19;;;;;;;2.70;1.42;;;;;;;2.69;79.72;99269.78;6321508;28;20123;-74
2021/12/03 09:17:55;;;;;;;2.90;1.77;;;;;;;2.80;80.27;99282.22;6296165;28;20033;-73
2021/12/03 09:27:04;;;;;;;8.18;3.42;;;;;;;3.10;81.08;99293.00;6294889;28;20048;-73
2021/12/03 09:30:09;;;;;;;13.15;3.13;;;;;;;3.24;79.74;99289.84;6309238;28;20055;-73
2021/12/03 09:33:14;;;;;;;6.55;3.33;;;;;;;3.24;81.47;99297.56;6314792;28;20044;-73
2021/12/03 09:36:15;;;;;;;7.13;2.90;;;;;;;3.03;80.95;99304.47;6307049;28;20618;-72
2021/12/03 09:39:19;;;;;;;3.90;1.95;;;;;;;3.02;79.35;99313.09;6304204;28;20037;-73
2021/12/03 09:42:20;;;;;;;8.02;3.85;;;;;;;3.18;83.01;99324.44;6322386;28;20047;-74
2021/12/03 09:45:21;;;;;;;9.05;3.25;;;;;;;3.13;81.30;99320.38;6323902;28;20482;-73
2021/12/03 09:48:44;;;;;;;4.55;2.55;;;;;;;3.17;81.11;99327.94;6325105;28;20043;-74
2021/12/03 09:51:53;;;;;;;;;;;;;;;2.99;80.92;99339.84;6324202;28;20121;-73
2021/12/03 09:55:09;;;;;;;7.93;2.63;;;;;;;3.16;83.45;99348.63;6324876;28;19966;-72
2021/12/03 09:58:41;;;;;;;6.30;3.00;;;;;;;3.39;81.28;99345.88;6320995;28;20554;-73
2021/12/03 10:05:13;;;;;;;7.35;3.00;;;;;;;3.46;79.77;99363.69;6298969;28;20504;-72
2021/12/03 10:15:08;;;;;;;10.57;4.35;;;;;;;3.42;77.31;99375.91;6301116;28;20053;-73
2021/12/03 10:18:24;;;;;;;5.88;2.80;;;;;;;3.48;77.08;99377.34;6324222;28;20043;-72
2021/12/03 10:44:35;;;;;;;5.68;3.05;;;;;;;4.07;76.09;99406.63;6321581;28;20047;-72
2021/12/03 10:53:52;;;;;;;6.43;3.08;;;;;;;4.37;74.30;99407.84;6322573;28;20450;-72
2021/12/03 11:07:20;;;;;;;8.88;2.42;;;;;;;4.16;70.57;99442.34;6322672;28;20052;-72
2021/12/03 12:34:53;;;;;;;9.45;3.38;;;;;;;4.70;66.63;99575.16;6322260;28;20044;-71
2021/12/03 12:39:00;;;;;;;6.57;2.80;;;;;;;4.58;65.56;99568.78;6297042;28;20052;-72
2021/12/03 12:44:50;;;;;;;7.03;3.15;;;;;;;4.71;63.00;99581.16;6320413;28;20545;-71
2021/12/03 14:05:57;;;;;;;19.90;12.13;;;;;;;3.96;68.85;99671.25;6304414;28;20726;-71
2021/12/03 14:57:57;;;;;;;17.80;8.68;;;;;;;2.88;77.93;99748.31;6318280;28;20055;-71
2021/12/03 15:01:25;;;;;;;21.02;10.00;;;;;;;2.80;78.46;99744.28;6323892;28;20152;-71
2021/12/03 15:07:45;;;;;;;23.88;13.25;;;;;;;2.65;79.44;99747.38;6322758;28;20044;-72
2021/12/03 15:14:38;;;;;;;32.22;19.00;;;;;;;2.55;80.27;99756.28;6323390;28;20484;-71
2021/12/03 15:36:45;;;;;;;22.48;13.90;;;;;;;1.91;86.02;99785.72;6313574;28;20051;-72
2021/12/03 15:56:38;;;;;;;29.33;16.52;;;;;;;1.78;87.61;99808.41;6308136;28;20610;-71
2021/12/03 16:19:02;;;;;;;43.60;20.05;;;;;;;1.33;90.57;99833.66;6320960;28;20051;-72
2021/12/03 16:57:50;;;;;;;32.50;17.50;;;;;;;0.78;95.86;99861.59;6301266;28;20451;-72
2021/12/03 17:01:01;;;;;;;33.05;17.60;;;;;;;0.82;94.07;99873.47;6321037;28;20127;-72
2021/12/03 17:18:10;;;;;;;31.58;18.42;;;;;;;0.72;93.13;99915.66;6319663;28;20105;-71
2021/12/03 17:44:42;;;;;;;61.95;28.65;;;;;;;0.19;95.00;99924.50;6295342;28;20389;-72
2021/12/03 18:00:49;;;;;;;48.40;24.40;;;;;;;0.22;96.97;99930.47;6313777;28;20040;-72
2021/12/03 18:04:08;;;;;;;48.30;25.73;;;;;;;0.15;96.83;99935.72;6298061;28;20540;-71
2021/12/03 18:07:30;;;;;;;49.53;25.60;;;;;;;0.12;97.31;99937.50;6298543;28;20094;-72
2021/12/03 18:10:47;;;;;;;56.90;26.48;;;;;;;0.04;98.03;99944.50;6299247;28;20480;-71
2021/12/03 18:44:11;;;;;;;47.50;23.98;;;;;;;-0.26;99.63;99955.31;6297593;28;20040;-72
2021/12/03 18:56:35;;;;;;;42.85;22.05;;;;;;;-0.52;96.15;99960.06;6298372;28;20041;-71
2021/12/03 18:59:40;;;;;;;43.00;23.25;;;;;;;-0.51;97.73;99954.06;6298135;28;20045;-72
2021/12/03 19:02:45;;;;;;;53.90;25.45;;;;;;;-0.50;98.08;99955.75;6263502;28;20056;-72
2021/12/03 19:08:59;;;;;;;52.17;26.38;;;;;;;-0.55;97.75;99960.97;6296599;28;20481;-71
2021/12/03 19:15:02;;;;;;;57.53;31.42;;;;;;;-0.76;98.36;99972.41;6263712;28;20056;-71
2021/12/03 19:18:03;;;;;;;58.20;31.88;;;;;;;-0.75;98.29;99963.00;6296568;28;20050;-70
2021/12/03 19:21:10;;;;;;;60.25;30.85;;;;;;;-0.77;100.00;99978.41;6279946;28;20040;-71
2021/12/03 19:24:14;;;;;;;72.22;34.75;;;;;;;-0.84;100.00;99974.25;6297795;28;20044;-71
2021/12/03 19:27:15;;;;;;;53.30;30.88;;;;;;;-1.26;100.00;99972.28;6297294;28;20198;-71
2021/12/03 19:30:16;;;;;;;56.20;32.60;;;;;;;-1.16;100.00;99978.13;6297387;28;20052;-71
2021/12/03 19:33:17;;;;;;;71.15;34.88;;;;;;;-1.02;100.00;99971.09;6313136;28;20052;-72
2021/12/03 19:36:23;;;;;;;63.88;33.00;;;;;;;-0.92;100.00;99971.78;6297388;28;20051;-71
2021/12/03 19:39:25;;;;;;;67.60;30.75;;;;;;;-0.88;100.00;99981.13;6297043;28;20040;-72
2021/12/03 19:42:39;;;;;;;54.58;28.95;;;;;;;-0.93;100.00;99988.03;6296133;28;20374;-71
2021/12/03 19:45:47;;;;;;;58.67;30.42;;;;;;;-0.88;100.00;99996.50;6296996;28;20037;-70
2021/12/03 19:48:52;;;;;;;55.08;28.95;;;;;;;-0.90;100.00;99989.72;6297112;28;20076;-72
2021/12/03 19:51:56;;;;;;;59.10;32.00;;;;;;;-0.90;100.00;99997.41;6295652;28;20066;-71
2021/12/03 19:54:57;;;;;;;115.35;53.97;;;;;;;-1.05;99.86;99994.19;6279447;28;20242;-71
2021/12/03 19:57:57;;;;;;;118.00;53.00;;;;;;;-1.06;100.00;99997.59;6295616;28;20405;-72
2021/12/03 20:00:58;;;;;;;100.03;47.55;;;;;;;-1.10;100.00;100000.25;6296558;28;20042;-71
2021/12/03 20:04:00;;;;;;;86.85;45.00;;;;;;;-1.20;100.00;100004.63;6295609;28;20068;-71
2021/12/03 20:07:01;;;;;;;88.47;43.13;;;;;;;-1.15;100.00;100008.00;6295655;28;20052;-72
2021/12/03 20:10:26;;;;;;;76.00;40.20;;;;;;;-1.24;100.00;100003.81;6262554;28;20308;-72
2021/12/03 20:13:26;;;;;;;86.95;43.75;;;;;;;-1.33;100.00;100013.34;6294598;28;20052;-72
2021/12/03 20:16:51;;;;;;;93.88;43.45;;;;;;;-1.23;100.00;100013.22;6295294;28;20123;-71
2021/12/03 20:19:52;;;;;;;80.28;40.67;;;;;;;-1.22;100.00;100008.94;6296223;28;20097;-72
2021/12/03 20:22:59;;;;;;;;;;;;;;;-1.19;100.00;100002.91;6296933;28;20041;-71
2021/12/03 20:29:19;;;;;;;82.10;41.03;;;;;;;-1.26;100.00;100013.22;6296215;28;20048;-71
2021/12/03 20:36:04;;;;;;;80.15;39.03;;;;;;;-1.36;100.00;99998.03;6296228;28;20400;-71
2021/12/03 20:38:57;;;;;;;;;;;;;;;-1.42;100.00;99998.97;6296310;28;20508;-72
2021/12/03 20:42:09;;;;;;;95.40;44.15;;;;;;;-1.49;100.00;100003.31;6294989;28;20008;-72
2021/12/03 21:11:10;;;;;;;105.13;46.40;;;;;;;-1.59;100.00;100021.34;6295673;28;20563;-72
2021/12/03 21:14:32;;;;;;;112.50;44.95;;;;;;;-1.56;100.00;100019.63;6295790;28;20044;-72
2021/12/03 21:20:52;;;;;;;100.22;44.78;;;;;;;-1.69;100.00;100031.72;6294627;28;20123;-72
2021/12/03 21:23:53;;;;;;;103.68;43.35;;;;;;;-1.60;100.00;100019.66;6279055;28;20040;-72
2021/12/03 21:26:54;;;;;;;90.82;42.83;;;;;;;-1.64;100.00;100013.75;6299604;28;20396;-72
2021/12/03 21:39:36;;;;;;;102.70;45.50;;;;;;;-1.86;100.00;100015.69;6299124;28;20047;-72
2021/12/03 21:42:37;;;;;;;94.43;45.00;;;;;;;-1.87;100.00;100009.72;6298728;28;20408;-74
2021/12/03 21:45:56;;;;;;;114.60;52.55;;;;;;;-1.88;100.00;100014.84;6282146;28;20037;-73
2021/12/03 21:48:58;;;;;;;105.10;49.63;;;;;;;-1.92;100.00;100023.41;6284792;28;20450;-73
2021/12/03 21:51:59;;;;;;;;;;;;;;;-1.90;100.00;100021.69;6300407;28;20040;-73
2021/12/03 21:55:06;;;;;;;99.75;44.72;;;;;;;-1.90;100.00;100026.81;6299624;28;19925;-73
2021/12/03 21:58:07;;;;;;;110.85;50.28;;;;;;;-1.95;100.00;100031.13;6299656;28;20094;-73
2021/12/03 22:01:08;;;;;;;116.55;50.90;;;;;;;-1.95;100.00;100026.03;6265187;28;20052;-72
2021/12/03 22:04:09;;;;;;;116.20;53.58;;;;;;;-2.09;100.00;100028.72;6298454;28;20047;-73
2021/12/03 22:07:12;;;;;;;114.45;53.00;;;;;;;-2.16;100.00;100017.69;6299534;28;20040;-72
2021/12/03 22:10:12;;;;;;;128.50;54.58;;;;;;;-2.07;100.00;100009.09;6298033;28;20041;-71
2021/12/03 22:13:14;;;;;;;140.60;60.22;;;;;;;-2.10;100.00;100017.63;6281338;28;20693;-71
2021/12/03 22:16:14;;;;;;;126.05;56.67;;;;;;;-2.06;100.00;100010.75;6281233;28;20045;-71
2021/12/03 22:19:16;;;;;;;112.38;51.58;;;;;;;-2.12;100.00;100006.59;6281457;28;20078;-72
2021/12/03 22:22:17;;;;;;;115.18;52.97;;;;;;;-2.10;100.00;100009.97;6299024;28;20040;-71
2021/12/03 22:25:18;;;;;;;113.22;52.22;;;;;;;-2.15;100.00;100005.75;6299054;28;20044;-72
2021/12/03 22:28:20;;;;;;;132.90;58.28;;;;;;;-2.12;100.00;100018.50;6297667;28;20099;-72
2021/12/03 22:31:21;;;;;;;135.30;59.22;;;;;;;-2.20;100.00;100004.94;6298928;28;20052;-72
2021/12/03 22:34:22;;;;;;;130.80;59.47;;;;;;;-2.25;100.00;99989.66;6264537;28;20064;-72
2021/12/03 22:37:23;;;;;;;139.57;61.70;;;;;;;-2.32;100.00;99995.69;6279805;28;20044;-72
2021/12/03 22:40:29;;;;;;;159.43;69.72;;;;;;;-2.29;100.00;99988.81;6298962;28;20051;-71
2021/12/03 22:43:33;;;;;;;159.15;72.45;;;;;;;-2.29;100.00;99985.44;6281096;28;20476;-70
2021/12/03 22:46:48;;;;;;;146.32;67.50;;;;;;;-2.29;100.00;99985.44;6298625;28;20135;-70
2021/12/03 22:52:52;;;;;;;145.65;65.38;;;;;;;-2.37;100.00;99988.06;6298506;28;20512;-71
2021/12/03 22:55:53;;;;;;;157.75;68.35;;;;;;;-2.47;100.00;99984.75;6297168;28;20032;-70